Terminal Aerodrome Forecast
Issued by NWS Sterling, VA

Current Version | Previous Version | Text Only | Print | Product List | Glossary Off
Versions: 1 2 3 4 5 6 7 8 9 10 11 12 13 14 15 16 17 18 19 20 21 22 23 24 25 26 27 28 29

000
FTUS41 KLWX 231740
TAFDCA
TAF
KDCA 231740Z 2318/2418 02008KT P6SM SCT050
     FM232000 33008KT P6SM SCT050
     FM232200 29009KT P6SM VCTS BKN050CB
     FM240200 24004KT P6SM BKN060
     FM240700 30004KT P6SM SCT070
     FM241500 08006KT P6SM FEW050=

USA.gov is the U.S. government's official web portal to all federal, state and local government web resources and services.